sensor_id;sensor_type;location;lat;lon;timestamp;P1;durP1;ratioP1;P2;durP2;ratioP2
38312;SDS011;24114;52.260;6.714;2023-04-01T00:01:58;4.22;;;1.67;;
38312;SDS011;24114;52.260;6.714;2023-04-01T00:04:26;4.15;;;1.75;;
38312;SDS011;24114;52.260;6.714;2023-04-01T00:06:53;5.53;;;2.30;;
38312;SDS011;24114;52.260;6.714;2023-04-01T00:09:21;4.68;;;2.00;;
38312;SDS011;24114;52.260;6.714;2023-04-01T00:11:49;3.72;;;1.80;;
38312;SDS011;24114;52.260;6.714;2023-04-01T00:14:17;2.97;;;1.75;;
38312;SDS011;24114;52.260;6.714;2023-04-01T00:16:46;3.38;;;1.98;;
38312;SDS011;24114;52.260;6.714;2023-04-01T00:19:14;3.72;;;1.58;;
38312;SDS011;24114;52.260;6.714;2023-04-01T00:21:42;3.50;;;1.90;;
38312;SDS011;24114;52.260;6.714;2023-04-01T00:24:10;5.20;;;2.00;;
38312;SDS011;24114;52.260;6.714;2023-04-01T00:26:38;4.88;;;2.28;;
38312;SDS011;24114;52.260;6.714;2023-04-01T00:29:07;4.67;;;2.23;;
38312;SDS011;24114;52.260;6.714;2023-04-01T00:31:34;4.60;;;2.08;;
38312;SDS011;24114;52.260;6.714;2023-04-01T00:34:03;3.85;;;1.90;;
38312;SDS011;24114;52.260;6.714;2023-04-01T00:36:31;4.90;;;2.00;;
38312;SDS011;24114;52.260;6.714;2023-04-01T00:39:00;3.22;;;2.17;;
38312;SDS011;24114;52.260;6.714;2023-04-01T00:41:28;3.83;;;2.10;;
38312;SDS011;24114;52.260;6.714;2023-04-01T00:46:45;3.08;;;1.70;;
38312;SDS011;24114;52.260;6.714;2023-04-01T00:49:15;3.45;;;1.80;;
38312;SDS011;24114;52.260;6.714;2023-04-01T00:51:45;4.13;;;2.08;;
38312;SDS011;24114;52.260;6.714;2023-04-01T00:54:14;3.58;;;1.98;;
38312;SDS011;24114;52.260;6.714;2023-04-01T00:56:45;2.85;;;2.10;;
38312;SDS011;24114;52.260;6.714;2023-04-01T00:59:17;3.50;;;2.03;;
38312;SDS011;24114;52.260;6.714;2023-04-01T01:01:48;2.75;;;1.60;;
38312;SDS011;24114;52.260;6.714;2023-04-01T01:04:22;3.00;;;1.98;;
38312;SDS011;24114;52.260;6.714;2023-04-01T01:06:54;2.17;;;1.52;;
38312;SDS011;24114;52.260;6.714;2023-04-01T01:09:28;3.07;;;1.90;;
38312;SDS011;24114;52.260;6.714;2023-04-01T01:12:01;4.63;;;1.98;;
38312;SDS011;24114;52.260;6.714;2023-04-01T01:14:36;3.03;;;1.87;;
38312;SDS011;24114;52.260;6.714;2023-04-01T01:17:13;2.30;;;1.70;;
38312;SDS011;24114;52.260;6.714;2023-04-01T01:19:56;3.45;;;2.00;;
38312;SDS011;24114;52.260;6.714;2023-04-01T01:25:47;3.35;;;1.75;;
38312;SDS011;24114;52.260;6.714;2023-04-01T01:28:25;2.28;;;1.80;;
38312;SDS011;24114;52.260;6.714;2023-04-01T01:31:02;3.40;;;2.00;;
38312;SDS011;24114;52.260;6.714;2023-04-01T01:33:40;3.77;;;1.80;;
38312;SDS011;24114;52.260;6.714;2023-04-01T01:36:15;2.10;;;1.80;;
38312;SDS011;24114;52.260;6.714;2023-04-01T01:38:44;2.90;;;1.75;;
38312;SDS011;24114;52.260;6.714;2023-04-01T01:41:13;3.17;;;2.08;;
38312;SDS011;24114;52.260;6.714;2023-04-01T01:43:43;6.33;;;2.43;;
38312;SDS011;24114;52.260;6.714;2023-04-01T01:46:14;2.65;;;2.10;;
38312;SDS011;24114;52.260;6.714;2023-04-01T01:48:45;3.92;;;2.30;;
38312;SDS011;24114;52.260;6.714;2023-04-01T01:51:13;2.50;;;2.23;;
38312;SDS011;24114;52.260;6.714;2023-04-01T01:53:42;2.65;;;2.22;;
38312;SDS011;24114;52.260;6.714;2023-04-01T01:56:11;3.10;;;2.40;;
38312;SDS011;24114;52.260;6.714;2023-04-01T01:58:41;2.78;;;2.17;;
38312;SDS011;24114;52.260;6.714;2023-04-01T02:01:11;3.15;;;2.35;;
38312;SDS011;24114;52.260;6.714;2023-04-01T02:03:40;2.85;;;2.28;;
38312;SDS011;24114;52.260;6.714;2023-04-01T02:06:10;2.67;;;2.20;;
38312;SDS011;24114;52.260;6.714;2023-04-01T02:08:39;2.97;;;2.60;;
38312;SDS011;24114;52.260;6.714;2023-04-01T02:11:10;3.35;;;2.20;;
38312;SDS011;24114;52.260;6.714;2023-04-01T02:13:39;2.75;;;2.47;;
38312;SDS011;24114;52.260;6.714;2023-04-01T02:16:11;2.40;;;2.13;;
38312;SDS011;24114;52.260;6.714;2023-04-01T02:18:40;2.58;;;2.35;;
38312;SDS011;24114;52.260;6.714;2023-04-01T02:21:09;2.97;;;2.67;;
38312;SDS011;24114;52.260;6.714;2023-04-01T02:23:37;2.80;;;2.40;;
38312;SDS011;24114;52.260;6.714;2023-04-01T02:26:07;3.55;;;2.60;;
38312;SDS011;24114;52.260;6.714;2023-04-01T02:28:36;2.78;;;2.38;;
38312;SDS011;24114;52.260;6.714;2023-04-01T02:31:05;3.40;;;2.70;;
38312;SDS011;24114;52.260;6.714;2023-04-01T02:33:34;3.10;;;2.80;;
38312;SDS011;24114;52.260;6.714;2023-04-01T02:36:02;3.53;;;2.80;;
38312;SDS011;24114;52.260;6.714;2023-04-01T02:38:30;3.42;;;3.13;;
38312;SDS011;24114;52.260;6.714;2023-04-01T02:40:58;4.28;;;3.28;;
38312;SDS011;24114;52.260;6.714;2023-04-01T02:43:28;3.97;;;3.45;;
38312;SDS011;24114;52.260;6.714;2023-04-01T02:45:56;4.18;;;3.25;;
38312;SDS011;24114;52.260;6.714;2023-04-01T02:48:24;4.05;;;3.75;;
38312;SDS011;24114;52.260;6.714;2023-04-01T02:50:52;4.57;;;3.90;;
38312;SDS011;24114;52.260;6.714;2023-04-01T02:53:19;4.40;;;4.00;;
38312;SDS011;24114;52.260;6.714;2023-04-01T02:55:47;4.63;;;4.20;;
38312;SDS011;24114;52.260;6.714;2023-04-01T02:58:16;5.28;;;4.30;;
38312;SDS011;24114;52.260;6.714;2023-04-01T03:00:45;5.07;;;4.47;;
38312;SDS011;24114;52.260;6.714;2023-04-01T03:03:13;5.20;;;4.70;;
38312;SDS011;24114;52.260;6.714;2023-04-01T03:05:41;5.13;;;4.63;;
38312;SDS011;24114;52.260;6.714;2023-04-01T03:08:09;7.10;;;5.00;;
38312;SDS011;24114;52.260;6.714;2023-04-01T03:10:37;6.05;;;5.45;;
38312;SDS011;24114;52.260;6.714;2023-04-01T03:13:05;8.45;;;5.10;;
38312;SDS011;24114;52.260;6.714;2023-04-01T03:15:33;8.02;;;6.10;;
38312;SDS011;24114;52.260;6.714;2023-04-01T03:18:02;6.22;;;5.63;;
38312;SDS011;24114;52.260;6.714;2023-04-01T03:20:30;6.82;;;5.70;;
38312;SDS011;24114;52.260;6.714;2023-04-01T03:22:58;7.53;;;6.30;;
38312;SDS011;24114;52.260;6.714;2023-04-01T03:25:25;6.50;;;5.75;;
38312;SDS011;24114;52.260;6.714;2023-04-01T03:27:54;6.70;;;6.00;;
38312;SDS011;24114;52.260;6.714;2023-04-01T03:30:22;7.63;;;6.35;;
38312;SDS011;24114;52.260;6.714;2023-04-01T03:32:50;6.97;;;5.95;;
38312;SDS011;24114;52.260;6.714;2023-04-01T03:35:19;7.72;;;6.68;;
38312;SDS011;24114;52.260;6.714;2023-04-01T03:37:47;9.70;;;6.78;;
38312;SDS011;24114;52.260;6.714;2023-04-01T03:40:14;9.38;;;6.45;;
38312;SDS011;24114;52.260;6.714;2023-04-01T03:42:42;9.27;;;6.57;;
38312;SDS011;24114;52.260;6.714;2023-04-01T03:45:10;8.30;;;6.43;;
38312;SDS011;24114;52.260;6.714;2023-04-01T03:47:39;7.63;;;6.40;;
38312;SDS011;24114;52.260;6.714;2023-04-01T03:50:07;8.27;;;6.45;;
38312;SDS011;24114;52.260;6.714;2023-04-01T03:52:37;7.93;;;6.70;;
38312;SDS011;24114;52.260;6.714;2023-04-01T03:55:06;9.27;;;6.22;;
38312;SDS011;24114;52.260;6.714;2023-04-01T03:57:34;8.48;;;6.72;;
38312;SDS011;24114;52.260;6.714;2023-04-01T04:00:02;7.70;;;6.53;;
38312;SDS011;24114;52.260;6.714;2023-04-01T04:02:30;9.23;;;7.38;;
38312;SDS011;24114;52.260;6.714;2023-04-01T04:04:58;7.80;;;6.40;;
38312;SDS011;24114;52.260;6.714;2023-04-01T04:07:26;7.70;;;5.82;;
38312;SDS011;24114;52.260;6.714;2023-04-01T04:09:55;6.20;;;5.60;;
38312;SDS011;24114;52.260;6.714;2023-04-01T04:12:22;6.60;;;5.90;;
38312;SDS011;24114;52.260;6.714;2023-04-01T04:14:50;6.47;;;5.68;;
38312;SDS011;24114;52.260;6.714;2023-04-01T04:17:18;7.57;;;5.80;;
38312;SDS011;24114;52.260;6.714;2023-04-01T04:19:45;6.47;;;5.78;;
38312;SDS011;24114;52.260;6.714;2023-04-01T04:22:13;7.10;;;5.82;;
38312;SDS011;24114;52.260;6.714;2023-04-01T04:24:41;7.10;;;6.13;;
38312;SDS011;24114;52.260;6.714;2023-04-01T04:27:10;6.43;;;5.03;;
38312;SDS011;24114;52.260;6.714;2023-04-01T04:29:38;6.28;;;4.88;;
38312;SDS011;24114;52.260;6.714;2023-04-01T04:32:05;7.43;;;5.47;;
38312;SDS011;24114;52.260;6.714;2023-04-01T04:34:33;5.88;;;5.18;;
38312;SDS011;24114;52.260;6.714;2023-04-01T04:37:01;4.70;;;4.30;;
38312;SDS011;24114;52.260;6.714;2023-04-01T04:39:29;6.77;;;5.17;;
38312;SDS011;24114;52.260;6.714;2023-04-01T04:41:57;6.25;;;4.95;;
38312;SDS011;24114;52.260;6.714;2023-04-01T04:44:26;7.47;;;5.20;;
38312;SDS011;24114;52.260;6.714;2023-04-01T04:46:54;5.50;;;5.00;;
38312;SDS011;24114;52.260;6.714;2023-04-01T04:49:23;5.68;;;5.00;;
38312;SDS011;24114;52.260;6.714;2023-04-01T04:51:51;5.78;;;5.18;;
38312;SDS011;24114;52.260;6.714;2023-04-01T04:54:19;5.75;;;4.63;;
38312;SDS011;24114;52.260;6.714;2023-04-01T04:56:47;5.07;;;4.30;;
38312;SDS011;24114;52.260;6.714;2023-04-01T04:59:15;6.00;;;4.60;;
38312;SDS011;24114;52.260;6.714;2023-04-01T05:01:44;6.07;;;4.73;;
38312;SDS011;24114;52.260;6.714;2023-04-01T05:04:12;5.82;;;4.60;;
38312;SDS011;24114;52.260;6.714;2023-04-01T05:06:39;4.93;;;4.07;;
38312;SDS011;24114;52.260;6.714;2023-04-01T05:09:07;4.18;;;3.65;;
38312;SDS011;24114;52.260;6.714;2023-04-01T05:11:35;4.57;;;3.95;;
38312;SDS011;24114;52.260;6.714;2023-04-01T05:14:02;4.57;;;4.10;;
38312;SDS011;24114;52.260;6.714;2023-04-01T05:16:30;5.57;;;4.00;;
38312;SDS011;24114;52.260;6.714;2023-04-01T05:19:00;4.32;;;3.92;;
38312;SDS011;24114;52.260;6.714;2023-04-01T05:21:27;5.18;;;4.40;;
38312;SDS011;24114;52.260;6.714;2023-04-01T05:23:55;5.23;;;4.30;;
38312;SDS011;24114;52.260;6.714;2023-04-01T05:26:23;5.15;;;4.28;;
38312;SDS011;24114;52.260;6.714;2023-04-01T05:28:51;4.88;;;4.30;;
38312;SDS011;24114;52.260;6.714;2023-04-01T05:31:18;5.10;;;4.20;;
38312;SDS011;24114;52.260;6.714;2023-04-01T05:33:46;4.53;;;4.07;;
38312;SDS011;24114;52.260;6.714;2023-04-01T05:36:15;6.22;;;4.60;;
38312;SDS011;24114;52.260;6.714;2023-04-01T05:38:43;7.70;;;4.70;;
38312;SDS011;24114;52.260;6.714;2023-04-01T05:41:13;4.40;;;4.00;;
38312;SDS011;24114;52.260;6.714;2023-04-01T05:43:41;5.80;;;4.57;;
38312;SDS011;24114;52.260;6.714;2023-04-01T05:46:09;5.68;;;4.47;;
38312;SDS011;24114;52.260;6.714;2023-04-01T05:48:37;5.32;;;4.60;;
38312;SDS011;24114;52.260;6.714;2023-04-01T05:51:05;4.75;;;4.20;;
38312;SDS011;24114;52.260;6.714;2023-04-01T05:53:34;7.80;;;4.67;;
38312;SDS011;24114;52.260;6.714;2023-04-01T05:56:02;4.73;;;4.33;;
38312;SDS011;24114;52.260;6.714;2023-04-01T05:58:31;5.90;;;5.07;;
38312;SDS011;24114;52.260;6.714;2023-04-01T06:01:03;5.97;;;5.20;;
38312;SDS011;24114;52.260;6.714;2023-04-01T06:03:36;5.50;;;4.80;;
38312;SDS011;24114;52.260;6.714;2023-04-01T06:06:04;6.70;;;5.65;;
38312;SDS011;24114;52.260;6.714;2023-04-01T06:08:37;8.52;;;5.40;;
38312;SDS011;24114;52.260;6.714;2023-04-01T06:11:10;6.32;;;5.03;;
38312;SDS011;24114;52.260;6.714;2023-04-01T06:13:48;5.82;;;5.10;;
38312;SDS011;24114;52.260;6.714;2023-04-01T06:16:34;5.20;;;4.60;;
38312;SDS011;24114;52.260;6.714;2023-04-01T06:19:16;4.65;;;4.13;;
38312;SDS011;24114;52.260;6.714;2023-04-01T06:22:00;5.03;;;4.53;;
38312;SDS011;24114;52.260;6.714;2023-04-01T06:25:06;5.23;;;4.70;;
38312;SDS011;24114;52.260;6.714;2023-04-01T06:27:43;5.50;;;4.88;;
38312;SDS011;24114;52.260;6.714;2023-04-01T06:30:22;5.97;;;5.38;;
38312;SDS011;24114;52.260;6.714;2023-04-01T06:33:02;6.47;;;5.20;;
38312;SDS011;24114;52.260;6.714;2023-04-01T06:35:42;5.57;;;4.77;;
38312;SDS011;24114;52.260;6.714;2023-04-01T06:38:25;4.63;;;4.23;;
38312;SDS011;24114;52.260;6.714;2023-04-01T06:41:06;4.50;;;4.10;;
38312;SDS011;24114;52.260;6.714;2023-04-01T06:43:45;5.43;;;4.43;;
38312;SDS011;24114;52.260;6.714;2023-04-01T06:46:22;4.70;;;4.15;;
38312;SDS011;24114;52.260;6.714;2023-04-01T06:51:51;4.45;;;4.05;;
38312;SDS011;24114;52.260;6.714;2023-04-01T06:54:23;5.18;;;3.90;;
38312;SDS011;24114;52.260;6.714;2023-04-01T06:56:56;4.00;;;3.60;;
38312;SDS011;24114;52.260;6.714;2023-04-01T06:59:27;4.30;;;3.90;;
38312;SDS011;24114;52.260;6.714;2023-04-01T07:01:57;4.00;;;3.60;;
38312;SDS011;24114;52.260;6.714;2023-04-01T07:04:28;3.53;;;3.22;;
38312;SDS011;24114;52.260;6.714;2023-04-01T07:06:58;3.92;;;3.53;;
38312;SDS011;24114;52.260;6.714;2023-04-01T07:09:30;4.15;;;3.75;;
38312;SDS011;24114;52.260;6.714;2023-04-01T07:12:01;4.07;;;3.57;;
38312;SDS011;24114;52.260;6.714;2023-04-01T07:14:30;3.72;;;3.42;;
38312;SDS011;24114;52.260;6.714;2023-04-01T07:17:01;4.50;;;3.75;;
38312;SDS011;24114;52.260;6.714;2023-04-01T07:19:33;3.83;;;3.35;;
38312;SDS011;24114;52.260;6.714;2023-04-01T07:22:05;4.53;;;3.75;;
38312;SDS011;24114;52.260;6.714;2023-04-01T07:24:40;5.97;;;5.38;;
38312;SDS011;24114;52.260;6.714;2023-04-01T07:27:12;5.50;;;4.88;;
38312;SDS011;24114;52.260;6.714;2023-04-01T07:29:41;4.78;;;4.28;;
38312;SDS011;24114;52.260;6.714;2023-04-01T07:32:12;4.40;;;4.00;;
38312;SDS011;24114;52.260;6.714;2023-04-01T07:34:52;4.60;;;3.90;;
38312;SDS011;24114;52.260;6.714;2023-04-01T07:37:28;3.92;;;3.53;;
38312;SDS011;24114;52.260;6.714;2023-04-01T07:40:01;4.00;;;3.60;;
38312;SDS011;24114;52.260;6.714;2023-04-01T07:42:41;3.42;;;3.03;;
38312;SDS011;24114;52.260;6.714;2023-04-01T07:45:18;3.40;;;2.90;;
38312;SDS011;24114;52.260;6.714;2023-04-01T07:47:53;3.00;;;2.70;;
38312;SDS011;24114;52.260;6.714;2023-04-01T07:50:27;3.00;;;2.10;;
38312;SDS011;24114;52.260;6.714;2023-04-01T07:52:59;2.15;;;1.95;;
38312;SDS011;24114;52.260;6.714;2023-04-01T07:55:33;2.70;;;1.75;;
38312;SDS011;24114;52.260;6.714;2023-04-01T07:58:07;2.00;;;1.80;;
38312;SDS011;24114;52.260;6.714;2023-04-01T08:00:40;2.47;;;1.80;;
38312;SDS011;24114;52.260;6.714;2023-04-01T08:03:21;2.00;;;1.70;;
38312;SDS011;24114;52.260;6.714;2023-04-01T08:05:59;1.55;;;1.40;;
38312;SDS011;24114;52.260;6.714;2023-04-01T08:08:30;1.67;;;1.37;;
38312;SDS011;24114;52.260;6.714;2023-04-01T08:11:05;2.35;;;2.15;;
38312;SDS011;24114;52.260;6.714;2023-04-01T08:13:39;3.22;;;2.22;;
38312;SDS011;24114;52.260;6.714;2023-04-01T08:16:11;3.72;;;2.42;;
38312;SDS011;24114;52.260;6.714;2023-04-01T08:18:44;2.65;;;2.25;;
38312;SDS011;24114;52.260;6.714;2023-04-01T08:21:15;2.83;;;2.58;;
38312;SDS011;24114;52.260;6.714;2023-04-01T08:23:47;3.40;;;2.90;;
38312;SDS011;24114;52.260;6.714;2023-04-01T08:26:17;4.63;;;3.08;;
38312;SDS011;24114;52.260;6.714;2023-04-01T08:28:53;3.80;;;3.15;;
38312;SDS011;24114;52.260;6.714;2023-04-01T08:31:23;2.80;;;2.60;;
38312;SDS011;24114;52.260;6.714;2023-04-01T08:33:53;2.37;;;2.17;;
38312;SDS011;24114;52.260;6.714;2023-04-01T08:36:22;3.17;;;2.50;;
38312;SDS011;24114;52.260;6.714;2023-04-01T08:38:53;3.90;;;2.70;;
38312;SDS011;24114;52.260;6.714;2023-04-01T08:47:33;2.50;;;2.28;;
38312;SDS011;24114;52.260;6.714;2023-04-01T08:50:19;3.03;;;1.83;;
38312;SDS011;24114;52.260;6.714;2023-04-01T08:52:53;2.75;;;1.75;;
38312;SDS011;24114;52.260;6.714;2023-04-01T08:55:36;2.83;;;2.08;;
38312;SDS011;24114;52.260;6.714;2023-04-01T08:58:11;4.47;;;1.90;;
38312;SDS011;24114;52.260;6.714;2023-04-01T09:01:01;3.17;;;2.38;;
38312;SDS011;24114;52.260;6.714;2023-04-01T09:03:41;3.75;;;2.50;;
38312;SDS011;24114;52.260;6.714;2023-04-01T09:06:28;3.80;;;2.88;;
38312;SDS011;24114;52.260;6.714;2023-04-01T09:09:09;4.10;;;2.30;;
38312;SDS011;24114;52.260;6.714;2023-04-01T09:11:59;6.47;;;2.17;;
38312;SDS011;24114;52.260;6.714;2023-04-01T09:14:38;3.53;;;2.10;;
38312;SDS011;24114;52.260;6.714;2023-04-01T09:17:23;2.38;;;2.03;;
38312;SDS011;24114;52.260;6.714;2023-04-01T09:20:01;2.45;;;2.25;;
38312;SDS011;24114;52.260;6.714;2023-04-01T09:22:42;2.73;;;2.17;;
38312;SDS011;24114;52.260;6.714;2023-04-01T09:25:26;2.75;;;2.55;;
38312;SDS011;24114;52.260;6.714;2023-04-01T09:28:01;2.88;;;2.60;;
38312;SDS011;24114;52.260;6.714;2023-04-01T09:30:34;3.40;;;2.75;;
38312;SDS011;24114;52.260;6.714;2023-04-01T09:33:27;2.55;;;2.25;;
38312;SDS011;24114;52.260;6.714;2023-04-01T09:36:12;2.67;;;2.47;;
38312;SDS011;24114;52.260;6.714;2023-04-01T09:38:52;2.80;;;2.40;;
38312;SDS011;24114;52.260;6.714;2023-04-01T09:41:28;2.50;;;2.30;;
38312;SDS011;24114;52.260;6.714;2023-04-01T09:44:03;1.63;;;1.52;;
38312;SDS011;24114;52.260;6.714;2023-04-01T09:48:21;2.05;;;1.50;;
38312;SDS011;24114;52.260;6.714;2023-04-01T09:51:00;2.10;;;1.40;;
38312;SDS011;24114;52.260;6.714;2023-04-01T09:53:36;1.60;;;1.50;;
38312;SDS011;24114;52.260;6.714;2023-04-01T09:59:37;1.08;;;0.93;;
38312;SDS011;24114;52.260;6.714;2023-04-01T10:02:38;1.02;;;0.90;;
38312;SDS011;24114;52.260;6.714;2023-04-01T10:05:41;1.23;;;1.00;;
38312;SDS011;24114;52.260;6.714;2023-04-01T10:08:47;1.48;;;1.38;;
38312;SDS011;24114;52.260;6.714;2023-04-01T10:11:49;1.88;;;1.35;;
38312;SDS011;24114;52.260;6.714;2023-04-01T10:18:12;1.38;;;1.08;;
38312;SDS011;24114;52.260;6.714;2023-04-01T10:21:02;1.97;;;1.30;;
38312;SDS011;24114;52.260;6.714;2023-04-01T10:23:45;1.65;;;1.40;;
38312;SDS011;24114;52.260;6.714;2023-04-01T10:26:56;1.40;;;1.30;;
38312;SDS011;24114;52.260;6.714;2023-04-01T10:35:51;1.90;;;1.60;;
38312;SDS011;24114;52.260;6.714;2023-04-01T10:38:55;2.08;;;1.88;;
38312;SDS011;24114;52.260;6.714;2023-04-01T10:44:51;2.03;;;1.83;;
38312;SDS011;24114;52.260;6.714;2023-04-01T10:49:07;2.57;;;2.37;;
38312;SDS011;24114;52.260;6.714;2023-04-01T10:55:01;3.63;;;3.10;;
38312;SDS011;24114;52.260;6.714;2023-04-01T10:57:53;3.17;;;2.87;;
38312;SDS011;24114;52.260;6.714;2023-04-01T11:04:08;3.60;;;3.17;;
38312;SDS011;24114;52.260;6.714;2023-04-01T11:10:08;4.18;;;3.78;;
38312;SDS011;24114;52.260;6.714;2023-04-01T11:13:22;3.50;;;3.20;;
38312;SDS011;24114;52.260;6.714;2023-04-01T11:19:07;4.13;;;3.80;;
38312;SDS011;24114;52.260;6.714;2023-04-01T11:25:09;3.05;;;2.85;;
38312;SDS011;24114;52.260;6.714;2023-04-01T11:28:09;2.45;;;2.25;;
38312;SDS011;24114;52.260;6.714;2023-04-01T11:30:58;2.25;;;2.05;;
38312;SDS011;24114;52.260;6.714;2023-04-01T11:33:42;2.50;;;2.30;;
38312;SDS011;24114;52.260;6.714;2023-04-01T11:36:15;2.33;;;2.13;;
38312;SDS011;24114;52.260;6.714;2023-04-01T11:38:51;3.38;;;2.30;;
38312;SDS011;24114;52.260;6.714;2023-04-01T11:41:40;3.95;;;2.58;;
38312;SDS011;24114;52.260;6.714;2023-04-01T11:44:16;2.60;;;2.25;;
38312;SDS011;24114;52.260;6.714;2023-04-01T11:46:54;2.33;;;2.00;;
38312;SDS011;24114;52.260;6.714;2023-04-01T11:49:34;2.47;;;2.15;;
38312;SDS011;24114;52.260;6.714;2023-04-01T11:52:11;3.13;;;2.27;;
38312;SDS011;24114;52.260;6.714;2023-04-01T11:54:51;2.95;;;2.13;;
38312;SDS011;24114;52.260;6.714;2023-04-01T12:00:55;2.40;;;1.35;;
38312;SDS011;24114;52.260;6.714;2023-04-01T12:06:31;1.50;;;1.20;;
38312;SDS011;24114;52.260;6.714;2023-04-01T12:09:04;1.65;;;1.20;;
38312;SDS011;24114;52.260;6.714;2023-04-01T12:11:39;1.33;;;1.20;;
38312;SDS011;24114;52.260;6.714;2023-04-01T12:14:14;1.73;;;1.10;;
38312;SDS011;24114;52.260;6.714;2023-04-01T12:16:49;1.60;;;1.10;;
38312;SDS011;24114;52.260;6.714;2023-04-01T12:19:24;1.70;;;1.20;;
38312;SDS011;24114;52.260;6.714;2023-04-01T12:22:04;1.33;;;1.10;;
38312;SDS011;24114;52.260;6.714;2023-04-01T12:24:46;1.10;;;0.82;;
38312;SDS011;24114;52.260;6.714;2023-04-01T12:27:29;1.00;;;0.73;;
38312;SDS011;24114;52.260;6.714;2023-04-01T12:30:19;0.75;;;0.50;;
38312;SDS011;24114;52.260;6.714;2023-04-01T12:33:00;0.85;;;0.70;;
38312;SDS011;24114;52.260;6.714;2023-04-01T12:35:39;0.93;;;0.82;;
38312;SDS011;24114;52.260;6.714;2023-04-01T12:38:15;1.20;;;1.10;;
38312;SDS011;24114;52.260;6.714;2023-04-01T12:43:47;2.20;;;2.00;;
38312;SDS011;24114;52.260;6.714;2023-04-01T12:46:36;3.10;;;2.90;;
38312;SDS011;24114;52.260;6.714;2023-04-01T12:49:34;3.40;;;3.20;;
38312;SDS011;24114;52.260;6.714;2023-04-01T12:52:24;3.80;;;3.60;;
38312;SDS011;24114;52.260;6.714;2023-04-01T13:00:56;5.17;;;4.77;;
38312;SDS011;24114;52.260;6.714;2023-04-01T13:03:43;5.35;;;4.95;;
38312;SDS011;24114;52.260;6.714;2023-04-01T13:06:42;5.78;;;5.28;;
38312;SDS011;24114;52.260;6.714;2023-04-01T13:09:21;5.30;;;4.80;;
38312;SDS011;24114;52.260;6.714;2023-04-01T13:14:57;4.00;;;3.65;;
38312;SDS011;24114;52.260;6.714;2023-04-01T13:17:36;2.67;;;2.47;;
38312;SDS011;24114;52.260;6.714;2023-04-01T13:20:11;3.30;;;3.00;;
38312;SDS011;24114;52.260;6.714;2023-04-01T13:22:48;1.77;;;1.67;;
38312;SDS011;24114;52.260;6.714;2023-04-01T13:25:24;1.75;;;1.65;;
38312;SDS011;24114;52.260;6.714;2023-04-01T13:27:56;2.00;;;1.80;;
38312;SDS011;24114;52.260;6.714;2023-04-01T13:30:28;1.97;;;1.77;;
38312;SDS011;24114;52.260;6.714;2023-04-01T13:33:01;1.95;;;1.50;;
38312;SDS011;24114;52.260;6.714;2023-04-01T13:35:38;2.40;;;1.55;;
38312;SDS011;24114;52.260;6.714;2023-04-01T13:41:06;1.70;;;1.60;;
38312;SDS011;24114;52.260;6.714;2023-04-01T13:43:42;1.60;;;1.50;;
38312;SDS011;24114;52.260;6.714;2023-04-01T13:46:27;1.52;;;1.42;;
38312;SDS011;24114;52.260;6.714;2023-04-01T13:52:17;1.70;;;1.60;;
38312;SDS011;24114;52.260;6.714;2023-04-01T13:54:58;2.08;;;1.88;;
38312;SDS011;24114;52.260;6.714;2023-04-01T13:57:49;2.20;;;2.03;;
38312;SDS011;24114;52.260;6.714;2023-04-01T14:00:45;2.00;;;1.90;;
38312;SDS011;24114;52.260;6.714;2023-04-01T14:03:26;2.20;;;2.10;;
38312;SDS011;24114;52.260;6.714;2023-04-01T14:06:02;2.10;;;2.00;;
38312;SDS011;24114;52.260;6.714;2023-04-01T14:08:36;1.92;;;1.83;;
38312;SDS011;24114;52.260;6.714;2023-04-01T14:11:19;2.22;;;2.10;;
38312;SDS011;24114;52.260;6.714;2023-04-01T14:13:54;2.50;;;2.30;;
38312;SDS011;24114;52.260;6.714;2023-04-01T14:16:43;2.50;;;2.20;;
38312;SDS011;24114;52.260;6.714;2023-04-01T14:22:41;1.60;;;1.50;;
38312;SDS011;24114;52.260;6.714;2023-04-01T14:25:22;1.90;;;1.80;;
38312;SDS011;24114;52.260;6.714;2023-04-01T14:28:04;2.47;;;1.92;;
38312;SDS011;24114;52.260;6.714;2023-04-01T14:30:48;2.30;;;2.10;;
38312;SDS011;24114;52.260;6.714;2023-04-01T14:33:33;2.65;;;2.45;;
38312;SDS011;24114;52.260;6.714;2023-04-01T14:38:59;3.90;;;3.60;;
38312;SDS011;24114;52.260;6.714;2023-04-01T14:41:32;4.50;;;4.20;;
38312;SDS011;24114;52.260;6.714;2023-04-01T14:44:16;5.38;;;4.97;;
38312;SDS011;24114;52.260;6.714;2023-04-01T14:47:03;6.00;;;5.50;;
38312;SDS011;24114;52.260;6.714;2023-04-01T14:49:36;6.78;;;6.25;;
38312;SDS011;24114;52.260;6.714;2023-04-01T14:52:09;6.10;;;5.70;;
38312;SDS011;24114;52.260;6.714;2023-04-01T14:54:39;6.93;;;6.43;;
38312;SDS011;24114;52.260;6.714;2023-04-01T14:57:10;6.50;;;6.00;;
38312;SDS011;24114;52.260;6.714;2023-04-01T14:59:41;5.85;;;5.30;;
38312;SDS011;24114;52.260;6.714;2023-04-01T15:02:18;5.38;;;4.97;;
38312;SDS011;24114;52.260;6.714;2023-04-01T15:05:04;5.45;;;5.05;;
38312;SDS011;24114;52.260;6.714;2023-04-01T15:13:43;5.35;;;4.97;;
38312;SDS011;24114;52.260;6.714;2023-04-01T15:16:20;4.80;;;4.50;;
38312;SDS011;24114;52.260;6.714;2023-04-01T15:18:54;5.13;;;4.67;;
38312;SDS011;24114;52.260;6.714;2023-04-01T15:21:31;4.90;;;4.60;;
38312;SDS011;24114;52.260;6.714;2023-04-01T15:24:12;5.40;;;5.00;;
38312;SDS011;24114;52.260;6.714;2023-04-01T15:26:54;6.30;;;5.80;;
38312;SDS011;24114;52.260;6.714;2023-04-01T15:29:44;6.63;;;6.13;;
38312;SDS011;24114;52.260;6.714;2023-04-01T15:32:37;6.75;;;6.25;;
38312;SDS011;24114;52.260;6.714;2023-04-01T15:35:15;7.05;;;6.55;;
38312;SDS011;24114;52.260;6.714;2023-04-01T15:37:50;7.23;;;6.73;;
38312;SDS011;24114;52.260;6.714;2023-04-01T15:40:22;7.00;;;6.40;;
38312;SDS011;24114;52.260;6.714;2023-04-01T15:42:54;7.45;;;6.90;;
38312;SDS011;24114;52.260;6.714;2023-04-01T15:45:35;6.35;;;5.90;;
38312;SDS011;24114;52.260;6.714;2023-04-01T15:48:13;6.60;;;6.10;;
38312;SDS011;24114;52.260;6.714;2023-04-01T15:50:54;7.13;;;6.57;;
38312;SDS011;24114;52.260;6.714;2023-04-01T15:53:33;6.40;;;6.00;;
38312;SDS011;24114;52.260;6.714;2023-04-01T15:56:25;6.80;;;6.30;;
38312;SDS011;24114;52.260;6.714;2023-04-01T15:59:00;7.28;;;6.78;;
38312;SDS011;24114;52.260;6.714;2023-04-01T16:01:35;7.32;;;6.82;;
38312;SDS011;24114;52.260;6.714;2023-04-01T16:04:15;7.40;;;6.90;;
38312;SDS011;24114;52.260;6.714;2023-04-01T16:06:53;7.63;;;7.13;;
38312;SDS011;24114;52.260;6.714;2023-04-01T16:09:34;7.30;;;6.80;;
38312;SDS011;24114;52.260;6.714;2023-04-01T16:12:14;8.47;;;7.83;;
38312;SDS011;24114;52.260;6.714;2023-04-01T16:14:44;7.63;;;7.03;;
38312;SDS011;24114;52.260;6.714;2023-04-01T16:17:36;8.20;;;7.50;;
38312;SDS011;24114;52.260;6.714;2023-04-01T16:20:17;7.82;;;7.13;;
38312;SDS011;24114;52.260;6.714;2023-04-01T16:22:49;7.88;;;7.28;;
38312;SDS011;24114;52.260;6.714;2023-04-01T16:25:20;8.20;;;7.50;;
38312;SDS011;24114;52.260;6.714;2023-04-01T16:28:00;8.70;;;8.00;;
38312;SDS011;24114;52.260;6.714;2023-04-01T16:30:37;8.70;;;8.00;;
38312;SDS011;24114;52.260;6.714;2023-04-01T16:33:10;7.85;;;7.25;;
38312;SDS011;24114;52.260;6.714;2023-04-01T16:35:44;7.40;;;6.90;;
38312;SDS011;24114;52.260;6.714;2023-04-01T16:38:16;7.65;;;7.05;;
38312;SDS011;24114;52.260;6.714;2023-04-01T16:40:51;7.35;;;6.85;;
38312;SDS011;24114;52.260;6.714;2023-04-01T16:43:27;8.00;;;7.40;;
38312;SDS011;24114;52.260;6.714;2023-04-01T16:46:12;8.32;;;7.72;;
38312;SDS011;24114;52.260;6.714;2023-04-01T16:48:51;8.60;;;7.90;;
38312;SDS011;24114;52.260;6.714;2023-04-01T16:51:27;9.23;;;8.50;;
38312;SDS011;24114;52.260;6.714;2023-04-01T16:54:02;8.60;;;8.00;;
38312;SDS011;24114;52.260;6.714;2023-04-01T16:56:38;9.20;;;8.43;;
38312;SDS011;24114;52.260;6.714;2023-04-01T16:59:14;8.30;;;7.70;;
38312;SDS011;24114;52.260;6.714;2023-04-01T17:01:44;8.60;;;7.90;;
38312;SDS011;24114;52.260;6.714;2023-04-01T17:04:18;8.15;;;7.55;;